Weather History for Colby, KS

Change the Weather History Date:

Friday, November 8, 2013

  Actual Average (KGLD) Record (KGLD)
Temperature  
Mean Temperature 51 °F 43 °F  
Max Temperature 69 °F 56 °F 83 °F (1934)
Min Temperature 33 °F 29 °F 16 °F (1955)
Degree Days  
Heating Degree Days 14 22  
Month to date heating degree days 166  
Since 1 July heating degree days 706  
Cooling Degree Days 0 0  
Month to date cooling degree days 0  
Year to date cooling degree days 941  
Growing Degree Days 1 (Base 50)    
Moisture  
Dew Point 35 °F    
Average Humidity 63    
Maximum Humidity 93    
Minimum Humidity 28    
Precipitation  
Precipitation 0.00 in 0.03 in 0.41 in (1970)
Month to date precipitation 0.24  
Year to date precipitation 18.73  
Snow  
Snow 0.00 in 0.10 in - ()
Month to date snowfall 1.0  
Since 1 July snowfall 3.6  
Since 1 September snowfall 3.6  
Snow Depth -    
Sea Level Pressure  
Sea Level Pressure 29.89 in    
Wind  
Wind Speed 10 mph (SW)    
Max Wind Speed 18 mph    
Max Gust Speed 24 mph    
Visibility 10 miles    
Events      
T = Trace of Precipitation, MM = Missing Value Source: NWS Daily Summary

Daily Weather History Graph

Daily Weather History Graph

Search for Another Location

Airport:

Trip Planner

Search our weather history database for the weather conditions in past years. The results will help you decide how hot, cold, wet, or windy it might be!

Date:

Astronomy

Nov. 08, 2013 Rise Set
Actual Time 7:20 AM CST 5:34 PM CST
Civil Twilight 6:52 AM CST 6:03 PM CST
Nautical Twilight 6:20 AM CST 6:35 PM CST
Astronomical Twilight 5:48 AM CST 7:06 PM CST
Moon 12:17 PM CST (11/8) 10:58 PM CST (11/8)
Length of Visible Light 11h 11m
Length of Day
10h 14m
Waxing Crescent, 33% of the Moon is Illuminated
Nov 8
Waxing Crescent
Nov 9
First Quarter
Nov 17
Full
Nov 25
Last Quarter
Dec 2
New

Hourly Weather History & Observations

Time (CST) Temp. Windchill Dew Point Humidity Pressure Visibility Wind Dir Wind Speed Gust Speed Precip Events Conditions
12:15 AM 39.2 °F 30.8 °F 33.8 °F 81% 30.09 in 10.0 mi SSE 15.0 mph - N/A   Clear
12:35 AM 39.2 °F 32.0 °F 33.8 °F 81% 30.08 in 10.0 mi SSE 11.5 mph - N/A   Clear
12:55 AM 39.2 °F 31.2 °F 33.8 °F 81% 30.07 in 10.0 mi SSE 13.8 mph 18.4 mph N/A   Clear
1:15 AM 39.2 °F 30.5 °F 32.0 °F 75% 30.05 in 10.0 mi SSE 16.1 mph - N/A   Clear
1:35 AM 41.0 °F 33.1 °F 32.0 °F 70% 30.03 in 10.0 mi SE 15.0 mph - N/A   Clear
1:55 AM 39.2 °F 31.6 °F 32.0 °F 75% 30.02 in 10.0 mi SSE 12.7 mph - N/A   Clear
2:15 AM 39.2 °F 31.6 °F 32.0 °F 75% 30.00 in 10.0 mi SSE 12.7 mph - N/A   Clear
2:35 AM 37.4 °F 31.4 °F 32.0 °F 81% 29.99 in 10.0 mi SSE 8.1 mph - N/A   Clear
2:55 AM 37.4 °F 31.4 °F 32.0 °F 81% 29.98 in 10.0 mi South 8.1 mph - N/A   Clear
3:15 AM 35.6 °F 30.7 °F 32.0 °F 87% 29.98 in 10.0 mi SSW 5.8 mph - N/A   Clear
3:35 AM 33.8 °F 29.6 °F 32.0 °F 93% 29.96 in 10.0 mi South 4.6 mph - N/A   Clear
3:55 AM 33.8 °F 27.7 °F 32.0 °F 93% 29.95 in 10.0 mi SSW 6.9 mph - N/A   Clear
4:15 AM 33.8 °F 27.7 °F 32.0 °F 93% 29.93 in 10.0 mi SSW 6.9 mph - N/A   Clear
4:35 AM 35.6 °F 29.2 °F 32.0 °F 87% 29.92 in 10.0 mi SSW 8.1 mph - N/A   Clear
4:55 AM 35.6 °F 29.2 °F 32.0 °F 87% 29.91 in 10.0 mi SSW 8.1 mph - N/A   Clear
5:15 AM 33.8 °F 27.7 °F 32.0 °F 93% 29.90 in 10.0 mi SSW 6.9 mph - N/A   Clear
5:35 AM 33.8 °F 27.7 °F 32.0 °F 93% 29.90 in 10.0 mi SSW 6.9 mph - N/A   Clear
5:55 AM 33.8 °F 27.0 °F 32.0 °F 93% 29.88 in 10.0 mi SSW 8.1 mph - N/A   Clear
6:15 AM 33.8 °F 27.0 °F 32.0 °F 93% 29.87 in 10.0 mi SSW 8.1 mph - N/A   Clear
6:35 AM 33.8 °F 27.7 °F 32.0 °F 93% 29.87 in 10.0 mi SW 6.9 mph - N/A   Clear
6:55 AM 33.8 °F 27.7 °F 32.0 °F 93% 29.86 in 10.0 mi SSW 6.9 mph - N/A   Clear
7:15 AM 33.8 °F 27.0 °F 32.0 °F 93% 29.86 in 10.0 mi SSW 8.1 mph - N/A   Clear
7:35 AM 33.8 °F 29.6 °F 32.0 °F 93% 29.86 in 10.0 mi SSW 4.6 mph - N/A   Clear
7:55 AM 35.6 °F 29.2 °F 32.0 °F 87% 29.85 in 10.0 mi SSW 8.1 mph - N/A   Clear
8:15 AM 35.6 °F 28.6 °F 33.8 °F 93% 29.85 in 10.0 mi SSW 9.2 mph - N/A   Clear
8:35 AM 37.4 °F 31.4 °F 33.8 °F 87% 29.84 in 10.0 mi SSW 8.1 mph - N/A   Clear
8:55 AM 41.0 °F 36.4 °F 35.6 °F 81% 29.84 in 10.0 mi SSW 6.9 mph - N/A   Clear
9:15 AM 42.8 °F 38.0 °F 35.6 °F 76% 29.84 in 10.0 mi SSW 8.1 mph - N/A   Clear
9:35 AM 44.6 °F 40.2 °F 35.6 °F 71% 29.83 in 10.0 mi SSW 8.1 mph - N/A   Clear
9:55 AM 46.4 °F 41.9 °F 35.6 °F 66% 29.82 in 10.0 mi SSW 9.2 mph - N/A   Clear
10:15 AM 50.0 °F - 35.6 °F 58% 29.81 in 10.0 mi SSW 8.1 mph - N/A   Clear
10:35 AM 53.6 °F - 37.4 °F 54% 29.79 in 10.0 mi SSW 11.5 mph - N/A   Clear
10:55 AM 59.0 °F - 37.4 °F 45% 29.80 in 10.0 mi SW 10.4 mph - N/A   Clear
11:15 AM 60.8 °F - 37.4 °F 42% 29.81 in 10.0 mi SW 11.5 mph - N/A   Clear
11:35 AM 64.4 °F - 39.2 °F 40% 29.82 in 10.0 mi WNW 6.9 mph - N/A   Clear
11:55 AM 68.0 °F - 37.4 °F 33% 29.82 in 10.0 mi WNW 10.4 mph 16.1 mph N/A   Clear
12:15 PM 66.2 °F - 42.8 °F 43% 29.83 in 10.0 mi North 18.4 mph 24.2 mph N/A   Clear
12:35 PM 66.2 °F - 39.2 °F 37% 29.82 in 10.0 mi NNW 10.4 mph - N/A   Clear
12:55 PM 69.8 °F - 35.6 °F 28% 29.81 in 10.0 mi North 13.8 mph 19.6 mph N/A   Clear
1:15 PM 68.0 °F - 35.6 °F 30% 29.80 in 10.0 mi NNW 11.5 mph - N/A   Clear
1:35 PM 69.8 °F - 35.6 °F 28% 29.79 in 10.0 mi NNW 11.5 mph 16.1 mph N/A   Clear
1:55 PM 69.8 °F - 35.6 °F 28% 29.79 in 10.0 mi NNW 8.1 mph - N/A   Clear
2:15 PM 69.8 °F - 35.6 °F 28% 29.80 in 10.0 mi NNW 9.2 mph - N/A   Clear
2:35 PM 69.8 °F - 35.6 °F 28% 29.80 in 10.0 mi NNW 11.5 mph - N/A   Clear
2:55 PM 69.8 °F - 35.6 °F 28% 29.80 in 10.0 mi NNW 12.7 mph 18.4 mph N/A   Clear
3:15 PM 69.8 °F - 35.6 °F 28% 29.81 in 10.0 mi NNW 11.5 mph 18.4 mph N/A   Clear
3:35 PM 68.0 °F - 35.6 °F 30% 29.81 in 10.0 mi North 5.8 mph - N/A   Clear
3:55 PM 66.2 °F - 37.4 °F 35% 29.82 in 10.0 mi Calm Calm - N/A   Clear
4:15 PM 64.4 °F - 37.4 °F 37% 29.82 in 10.0 mi NNE 3.5 mph - N/A   Clear
4:35 PM 62.6 °F - 39.2 °F 42% 29.82 in 10.0 mi Calm Calm - N/A   Clear
4:55 PM 62.6 °F - 37.4 °F 39% 29.83 in 10.0 mi Calm Calm - N/A   Clear
5:15 PM 60.8 °F - 37.4 °F 42% 29.84 in 10.0 mi SE 4.6 mph - N/A   Clear
5:35 PM 59.0 °F - 37.4 °F 45% 29.85 in 10.0 mi SSE 3.5 mph - N/A   Clear
5:55 PM 57.2 °F - 35.6 °F 44% 29.86 in 10.0 mi SSE 3.5 mph - N/A   Clear
6:15 PM 57.2 °F - 35.6 °F 44% 29.87 in 10.0 mi Calm Calm - N/A   Clear
6:35 PM 51.8 °F - 37.4 °F 58% 29.89 in 10.0 mi South 3.5 mph - N/A   Clear
6:55 PM 50.0 °F - 35.6 °F 58% 29.90 in 10.0 mi Calm Calm - N/A   Clear
7:15 PM 51.8 °F - 35.6 °F 54% 29.91 in 10.0 mi Calm Calm - N/A   Clear
7:35 PM 53.6 °F - 35.6 °F 51% 29.92 in 10.0 mi Calm Calm - N/A   Clear
7:55 PM 50.0 °F - 35.6 °F 58% 29.93 in 10.0 mi North 6.9 mph - N/A   Clear
8:15 PM 51.8 °F - 35.6 °F 54% 29.93 in 10.0 mi North 9.2 mph - N/A   Clear
8:35 PM 53.6 °F - 35.6 °F 51% 29.93 in 10.0 mi North 9.2 mph - N/A   Clear
8:55 PM 51.8 °F - 35.6 °F 54% 29.93 in 10.0 mi North 9.2 mph - N/A   Clear
9:15 PM 50.0 °F - 35.6 °F 58% 29.95 in 10.0 mi North 12.7 mph - N/A   Clear
9:35 PM 46.4 °F 41.1 °F 35.6 °F 66% 29.95 in 10.0 mi North 11.5 mph - N/A   Clear
9:55 PM 46.4 °F 41.1 °F 35.6 °F 66% 29.96 in 10.0 mi NNE 11.5 mph - N/A   Clear
10:15 PM 44.6 °F 38.8 °F 35.6 °F 71% 29.97 in 10.0 mi NNE 11.5 mph - N/A   Clear
10:35 PM 44.6 °F 39.2 °F 35.6 °F 71% 29.97 in 10.0 mi NNE 10.4 mph - N/A   Clear
10:55 PM 42.8 °F 36.6 °F 35.6 °F 76% 29.97 in 10.0 mi North 11.5 mph - N/A   Clear
11:15 PM 42.8 °F 36.6 °F 35.6 °F 76% 29.97 in 10.0 mi North 11.5 mph - N/A   Clear
11:35 PM 42.8 °F 36.6 °F 35.6 °F 76% 29.98 in 10.0 mi North 11.5 mph - N/A   Clear
11:55 PM 41.0 °F 34.3 °F 35.6 °F 81% 29.98 in 10.0 mi North 11.5 mph - N/A   Clear